createdAt,value
2023-03-16T00:00:22.848Z,29.62
2023-03-16T00:03:51.307Z,29.54
2023-03-16T00:07:20.494Z,28.56
2023-03-16T00:10:28.310Z,28.22
2023-03-16T00:13:37.334Z,28.48
2023-03-16T00:17:09.559Z,27.52
2023-03-16T00:20:51.228Z,27.03
2023-03-16T00:27:32.899Z,26.13
2023-03-16T00:37:45.524Z,25.86
2023-03-16T00:41:39.305Z,27.53
2023-03-16T00:45:08.968Z,29.14
2023-03-16T00:48:48.418Z,30.74
2023-03-16T00:51:55.754Z,31.77
2023-03-16T00:55:04.978Z,32.29
2023-03-16T00:58:59.684Z,33.43
2023-03-16T01:02:12.667Z,33.56
2023-03-16T01:08:42.932Z,34.12
2023-03-16T01:11:55.384Z,34.35
2023-03-16T01:15:05.665Z,34.24
2023-03-16T01:18:09.965Z,34.94
2023-03-16T01:21:16.546Z,33.52
2023-03-16T01:24:45.892Z,32.89
2023-03-16T01:28:14.645Z,33.48
2023-03-16T01:31:35.122Z,33.54
2023-03-16T01:35:03.514Z,32.60
2023-03-16T01:38:07.472Z,31.94
2023-03-16T01:41:15.155Z,31.94
2023-03-16T01:44:23.304Z,32.13
2023-03-16T01:47:39.053Z,32.14
2023-03-16T01:50:49.820Z,32.12
2023-03-16T01:54:02.694Z,32.02
2023-03-16T01:57:17.083Z,32.28
2023-03-16T02:00:46.884Z,31.99
2023-03-16T02:04:27.916Z,32.26
2023-03-16T02:08:25.374Z,32.24
2023-03-16T02:11:30.823Z,33.31
2023-03-16T02:14:52.154Z,32.87
2023-03-16T02:18:02.419Z,32.76
2023-03-16T02:21:26.704Z,33.37
2023-03-16T02:28:10.622Z,34.07
2023-03-16T02:31:23.244Z,32.59
2023-03-16T02:34:28.435Z,33.04
2023-03-16T02:37:34.753Z,33.29
2023-03-16T02:40:48.422Z,33.48
2023-03-16T02:44:15.944Z,32.97
2023-03-16T02:47:56.872Z,32.61
2023-03-16T02:51:00.525Z,32.32
2023-03-16T03:01:22.096Z,32.19
2023-03-16T03:04:33.901Z,30.83
2023-03-16T03:07:38.245Z,31.39
2023-03-16T03:11:09.568Z,31.51
2023-03-16T03:14:41.545Z,31.71
2023-03-16T03:17:53.974Z,29.98
2023-03-16T03:28:01.287Z,30.00
2023-03-16T03:31:05.120Z,30.84
2023-03-16T03:34:24.898Z,29.85
2023-03-16T03:37:55.295Z,29.66
2023-03-16T03:41:02.084Z,29.78
2023-03-16T03:44:14.595Z,30.42
2023-03-16T03:47:58.278Z,29.90
2023-03-16T03:51:02.564Z,28.68
2023-03-16T03:54:38.727Z,29.34
2023-03-16T03:57:46.521Z,29.01
2023-03-16T04:00:50.548Z,28.61
2023-03-16T04:07:12.562Z,29.10
2023-03-16T04:10:17.436Z,28.03
2023-03-16T04:13:32.891Z,27.84
2023-03-16T04:16:37.277Z,29.13
2023-03-16T04:19:53.649Z,27.48
2023-03-16T04:23:36.015Z,27.20
2023-03-16T04:26:52.658Z,27.24
2023-03-16T04:30:00.411Z,27.19
2023-03-16T04:33:06.415Z,28.30
2023-03-16T04:36:17.612Z,28.02
2023-03-16T04:39:23.586Z,27.36
2023-03-16T04:43:30.249Z,27.13
2023-03-16T04:46:53.558Z,26.06
2023-03-16T04:49:59.262Z,25.55
2023-03-16T04:53:03.212Z,26.74
2023-03-16T04:56:25.121Z,26.87
2023-03-16T04:59:37.798Z,25.78
2023-03-16T05:02:53.001Z,25.64
2023-03-16T05:06:02.296Z,25.79
2023-03-16T05:09:27.270Z,25.90
2023-03-16T05:12:34.313Z,25.93
2023-03-16T05:15:46.927Z,25.98
2023-03-16T05:19:10.632Z,26.31
2023-03-16T05:22:18.084Z,26.60
2023-03-16T05:26:10.096Z,25.98
2023-03-16T05:29:15.635Z,25.95
2023-03-16T05:32:52.909Z,25.78
2023-03-16T05:36:05.984Z,24.64
2023-03-16T05:40:05.111Z,23.91
2023-03-16T05:43:12.487Z,23.51
2023-03-16T05:46:33.814Z,24.13
2023-03-16T05:50:09.947Z,23.91
2023-03-16T05:53:20.066Z,24.22
2023-03-16T05:56:30.972Z,23.88
2023-03-16T05:59:49.640Z,25.02
2023-03-16T06:03:28.154Z,24.93
2023-03-16T06:06:43.466Z,24.64
2023-03-16T06:10:27.716Z,25.18
2023-03-16T06:13:58.783Z,25.58
2023-03-16T06:17:33.943Z,25.65
2023-03-16T06:20:40.649Z,24.93
2023-03-16T06:34:29.374Z,25.63
2023-03-16T06:37:37.799Z,25.71
2023-03-16T06:41:02.607Z,24.73
2023-03-16T06:51:50.736Z,24.45
2023-03-16T06:55:10.172Z,23.19
2023-03-16T06:58:24.022Z,23.37
2023-03-16T07:01:48.219Z,23.68
2023-03-16T07:04:55.221Z,23.74
2023-03-16T07:08:40.369Z,24.53
2023-03-16T07:12:10.673Z,23.64
2023-03-16T07:15:15.165Z,23.36
2023-03-16T07:18:45.492Z,22.21
2023-03-16T07:21:54.840Z,22.53
2023-03-16T07:25:13.435Z,22.00
2023-03-16T07:28:34.752Z,22.66
2023-03-16T07:56:17.852Z,23.37
2023-03-16T07:59:28.308Z,23.35
2023-03-16T08:02:52.630Z,23.42
2023-03-16T08:06:13.568Z,23.53
2023-03-16T08:09:48.407Z,23.53
2023-03-16T08:13:13.215Z,24.04
2023-03-16T08:16:49.076Z,23.86
2023-03-16T08:20:35.553Z,24.23
2023-03-16T08:23:41.803Z,24.20
2023-03-16T08:26:49.007Z,24.85
2023-03-16T08:29:54.421Z,24.22
2023-03-16T08:33:17.768Z,23.84
2023-03-16T08:36:25.178Z,24.28
2023-03-16T08:39:55.091Z,24.06
2023-03-16T08:43:05.636Z,24.22
2023-03-16T08:46:28.153Z,24.38
2023-03-16T08:49:38.489Z,24.04
2023-03-16T08:56:33.286Z,23.70
2023-03-16T08:59:38.056Z,23.92
2023-03-16T09:03:28.810Z,23.74
2023-03-16T09:07:08.969Z,24.49
2023-03-16T09:10:24.037Z,24.53
2023-03-16T09:13:41.069Z,24.45
2023-03-16T09:16:49.305Z,24.06
2023-03-16T09:28:26.072Z,25.39
2023-03-16T09:31:32.949Z,25.38
2023-03-16T09:42:18.133Z,25.60
2023-03-16T09:45:45.824Z,26.44
2023-03-16T09:49:17.981Z,27.52
2023-03-16T09:52:32.956Z,28.27
2023-03-16T09:56:09.244Z,27.87
2023-03-16T09:59:19.454Z,27.83
2023-03-16T10:02:32.576Z,27.81
2023-03-16T10:05:42.530Z,27.45
2023-03-16T10:09:18.615Z,27.82
2023-03-16T10:12:24.102Z,28.23
2023-03-16T10:15:34.196Z,28.12
2023-03-16T10:19:20.468Z,28.63
2023-03-16T10:22:41.012Z,28.97
2023-03-16T10:25:58.061Z,28.52
2023-03-16T10:29:32.624Z,28.47
2023-03-16T10:32:50.523Z,28.65
2023-03-16T10:36:20.141Z,29.01
2023-03-16T10:39:37.327Z,29.47
2023-03-16T10:42:44.807Z,28.80
2023-03-16T10:46:03.268Z,28.94
2023-03-16T10:49:21.641Z,29.55
2023-03-16T10:52:43.485Z,29.26
2023-03-16T10:56:23.473Z,29.28
2023-03-16T10:59:52.814Z,29.59
2023-03-16T11:03:00.552Z,30.45
2023-03-16T11:06:33.258Z,31.03
2023-03-16T11:10:26.488Z,31.21
2023-03-16T11:13:39.364Z,31.42
2023-03-16T11:17:20.648Z,32.21
2023-03-16T11:20:31.750Z,32.08
2023-03-16T11:23:38.623Z,32.03
2023-03-16T11:27:00.732Z,32.51
2023-03-16T11:31:00.131Z,32.61
2023-03-16T11:34:03.715Z,32.27
2023-03-16T11:37:43.813Z,32.76
2023-03-16T11:41:04.705Z,32.51
2023-03-16T11:48:21.448Z,32.67
2023-03-16T11:52:02.246Z,32.45
2023-03-16T11:55:26.868Z,32.50
2023-03-16T11:59:03.607Z,32.23
2023-03-16T12:02:47.584Z,31.98
2023-03-16T12:06:23.190Z,32.53
2023-03-16T12:10:09.541Z,32.42
2023-03-16T12:17:47.057Z,32.04
2023-03-16T12:21:49.219Z,32.22
2023-03-16T12:34:11.737Z,32.33
2023-03-16T12:38:08.515Z,32.21
2023-03-16T12:41:58.748Z,32.32
2023-03-16T12:45:32.851Z,32.45
2023-03-16T12:52:15.594Z,32.79
2023-03-16T12:56:05.493Z,33.09
2023-03-16T12:59:26.218Z,33.08
2023-03-16T13:03:19.987Z,33.14
2023-03-16T13:06:27.889Z,33.25
2023-03-16T13:09:50.323Z,33.07
2023-03-16T13:13:08.272Z,33.29
2023-03-16T13:16:28.143Z,33.13
2023-03-16T13:19:33.729Z,33.29
2023-03-16T13:22:48.327Z,33.30
2023-03-16T13:26:07.903Z,33.43
2023-03-16T13:29:37.158Z,33.53
2023-03-16T13:32:42.646Z,33.45
2023-03-16T13:35:52.142Z,33.62
2023-03-16T13:39:07.864Z,32.92
2023-03-16T13:42:33.349Z,32.74
2023-03-16T13:45:57.201Z,32.95
2023-03-16T13:49:21.546Z,32.85
2023-03-16T13:53:20.114Z,33.52
2023-03-16T13:57:36.930Z,32.97
2023-03-16T14:01:20.513Z,33.33
2023-03-16T14:08:50.555Z,33.10
2023-03-16T14:12:19.317Z,33.40
2023-03-16T14:15:48.750Z,33.32
2023-03-16T14:19:20.081Z,33.70
2023-03-16T14:23:15.466Z,33.72
2023-03-16T14:26:58.747Z,33.52
2023-03-16T14:30:16.116Z,33.90
2023-03-16T14:33:51.501Z,33.85
2023-03-16T14:37:11.902Z,34.24
2023-03-16T14:40:31.775Z,34.02
2023-03-16T14:47:33.649Z,33.69
2023-03-16T14:50:38.296Z,33.73
2023-03-16T14:54:25.926Z,33.92
2023-03-16T14:58:21.794Z,34.42
2023-03-16T15:01:35.066Z,34.26
2023-03-16T15:04:38.993Z,34.62
2023-03-16T15:07:55.040Z,34.45
2023-03-16T15:11:08.171Z,34.75
2023-03-16T15:14:35.997Z,34.64
2023-03-16T15:17:47.386Z,34.51
2023-03-16T15:20:54.589Z,34.66
2023-03-16T15:24:01.657Z,34.72
2023-03-16T15:27:35.234Z,34.83
2023-03-16T15:30:45.667Z,35.19
2023-03-16T15:33:52.299Z,34.93
2023-03-16T15:37:02.218Z,35.42
2023-03-16T15:40:18.473Z,35.17
2023-03-16T15:43:39.888Z,35.44
2023-03-16T15:50:25.600Z,35.33
2023-03-16T15:54:07.785Z,35.27
2023-03-16T15:57:32.307Z,35.55
2023-03-16T16:00:45.220Z,36.05
2023-03-16T16:04:41.050Z,35.95
2023-03-16T16:08:35.665Z,35.99
2023-03-16T16:12:55.619Z,36.23
2023-03-16T16:16:21.253Z,36.36
2023-03-16T16:19:28.265Z,37.15
2023-03-16T16:22:48.437Z,36.79
2023-03-16T16:26:10.482Z,36.67
2023-03-16T16:29:36.415Z,36.67
2023-03-16T16:32:42.646Z,36.84
2023-03-16T16:36:20.595Z,36.25
2023-03-16T16:39:25.223Z,36.79
2023-03-16T16:42:30.970Z,36.55
2023-03-16T16:46:00.938Z,36.63
2023-03-16T16:49:30.936Z,37.33
2023-03-16T16:52:34.683Z,37.42
2023-03-16T16:56:08.110Z,37.54
2023-03-16T16:59:26.023Z,36.75
2023-03-16T17:02:42.211Z,36.33
2023-03-16T17:05:46.010Z,35.94
2023-03-16T17:08:55.761Z,35.81
2023-03-16T17:12:02.147Z,35.82
2023-03-16T17:15:29.812Z,35.92
2023-03-16T17:18:47.893Z,35.77
2023-03-16T17:21:58.179Z,35.83
2023-03-16T17:25:01.951Z,35.80
2023-03-16T17:28:11.127Z,35.78
2023-03-16T17:31:24.504Z,36.13
2023-03-16T17:34:30.270Z,35.95
2023-03-16T17:37:34.147Z,35.85
2023-03-16T17:40:41.535Z,35.82
2023-03-16T17:44:08.200Z,35.83
2023-03-16T17:47:23.617Z,35.94
2023-03-16T17:50:34.868Z,36.18
2023-03-16T17:53:40.776Z,36.07
2023-03-16T17:56:44.795Z,36.09
2023-03-16T17:59:48.929Z,36.51
2023-03-16T18:02:58.183Z,37.26
2023-03-16T18:06:05.276Z,37.43
2023-03-16T18:09:10.562Z,37.39
2023-03-16T18:12:15.220Z,37.44
2023-03-16T18:15:25.192Z,37.33
2023-03-16T18:18:32.521Z,37.57
2023-03-16T18:21:54.776Z,37.89
2023-03-16T18:24:58.665Z,37.72
2023-03-16T18:28:03.128Z,37.84
2023-03-16T18:31:28.040Z,37.64
2023-03-16T18:34:38.765Z,37.94
2023-03-16T18:37:45.747Z,37.90
2023-03-16T18:44:32.647Z,38.38
2023-03-16T18:47:36.705Z,38.39
2023-03-16T18:50:45.819Z,38.02
2023-03-16T18:54:15.075Z,38.02
2023-03-16T18:57:33.319Z,38.01
2023-03-16T19:00:37.088Z,38.94
2023-03-16T19:03:52.798Z,39.26
2023-03-16T19:07:33.730Z,39.08
2023-03-16T19:11:19.291Z,39.12
2023-03-16T19:14:32.027Z,39.97
2023-03-16T19:17:38.749Z,39.88
2023-03-16T19:20:44.260Z,40.23
2023-03-16T19:24:27.800Z,40.51
2023-03-16T19:27:44.673Z,40.97
2023-03-16T19:30:58.318Z,41.09
2023-03-16T19:34:05.145Z,41.03
2023-03-16T19:37:10.893Z,41.11
2023-03-16T19:40:39.512Z,41.12
2023-03-16T19:44:14.636Z,40.40
2023-03-16T19:47:33.239Z,39.68
2023-03-16T19:50:39.764Z,39.99
2023-03-16T19:53:46.362Z,39.77
2023-03-16T19:56:56.812Z,39.13
2023-03-16T20:00:07.498Z,39.00
2023-03-16T20:04:04.903Z,39.03
2023-03-16T20:07:18.452Z,39.71
2023-03-16T20:10:49.990Z,40.04
2023-03-16T20:14:24.827Z,40.06
2023-03-16T20:17:33.718Z,39.98
2023-03-16T20:21:02.880Z,40.22
2023-03-16T20:24:17.760Z,40.19
2023-03-16T20:27:26.334Z,40.15
2023-03-16T20:30:30.953Z,40.08
2023-03-16T20:33:34.654Z,40.42
2023-03-16T20:36:44.458Z,40.47
2023-03-16T20:39:48.632Z,40.46
2023-03-16T20:42:54.874Z,40.38
2023-03-16T20:46:03.267Z,40.68
2023-03-16T20:56:25.211Z,40.87
2023-03-16T20:59:30.989Z,41.08
2023-03-16T21:02:36.463Z,41.25
2023-03-16T21:05:41.062Z,41.51
2023-03-16T21:08:44.550Z,41.58
2023-03-16T21:11:49.291Z,41.67
2023-03-16T21:14:53.669Z,41.78
2023-03-16T21:18:01.624Z,41.83
2023-03-16T21:21:05.467Z,41.74
2023-03-16T21:24:09.436Z,41.86
2023-03-16T21:27:23.060Z,41.84
2023-03-16T21:30:36.098Z,41.63
2023-03-16T21:41:18.567Z,41.74
2023-03-16T21:47:52.237Z,41.90
2023-03-16T21:50:58.794Z,41.86
2023-03-16T21:54:02.481Z,42.29
2023-03-16T21:57:24.356Z,42.15
2023-03-16T22:00:34.166Z,42.23
2023-03-16T22:04:05.214Z,42.22
2023-03-16T22:07:13.732Z,42.14
2023-03-16T22:10:42.892Z,42.40
2023-03-16T22:14:27.916Z,42.32
2023-03-16T22:17:34.058Z,42.36
2023-03-16T22:20:52.852Z,42.31
2023-03-16T22:23:58.747Z,42.20
2023-03-16T22:27:06.592Z,42.47
2023-03-16T22:30:25.638Z,42.44
2023-03-16T22:33:35.805Z,42.42
2023-03-16T22:36:42.917Z,43.03
2023-03-16T22:45:52.005Z,43.39
2023-03-16T22:49:01.807Z,42.90
2023-03-16T23:12:19.901Z,43.53
2023-03-16T23:12:56.139Z,43.07
2023-03-16T23:25:16.499Z,41.18
2023-03-16T23:28:25.618Z,41.20
2023-03-16T23:31:48.616Z,39.96
